createdAt,value
2023-02-09T00:01:49.694Z,101839.47
2023-02-09T00:04:19.349Z,101840.00
2023-02-09T00:06:49.076Z,101841.69
2023-02-09T00:09:18.690Z,101851.25
2023-02-09T00:12:06.564Z,101852.28
2023-02-09T00:14:36.584Z,101841.63
2023-02-09T00:17:06.337Z,101849.75
2023-02-09T00:19:35.969Z,101844.44
2023-02-09T00:22:05.689Z,101836.41
2023-02-09T00:24:35.311Z,101835.03
2023-02-09T00:27:05.012Z,101831.63
2023-02-09T00:29:37.388Z,101823.41
2023-02-09T00:32:10.517Z,101831.44
2023-02-09T00:34:40.440Z,101829.63
2023-02-09T00:37:10.101Z,101812.31
2023-02-09T00:39:39.849Z,101810.66
2023-02-09T00:42:09.702Z,101809.41
2023-02-09T00:44:41.504Z,101800.38
2023-02-09T00:47:11.853Z,101800.28
2023-02-09T00:49:44.247Z,101804.91
2023-02-09T00:52:14.193Z,101813.69
2023-02-09T00:54:44.019Z,101815.03
2023-02-09T00:57:13.948Z,101812.75
2023-02-09T00:59:44.004Z,101806.38
2023-02-09T01:02:13.622Z,101809.25
2023-02-09T01:04:43.505Z,101809.00
2023-02-09T01:07:13.141Z,101813.75
2023-02-09T01:09:45.938Z,101812.50
2023-02-09T01:12:15.722Z,101808.16
2023-02-09T01:14:45.589Z,101802.66
2023-02-09T01:17:18.461Z,101799.72
2023-02-09T01:19:51.152Z,101803.84
2023-02-09T01:22:20.790Z,101805.28
2023-02-09T01:24:50.511Z,101799.53
2023-02-09T01:27:20.863Z,101791.16
2023-02-09T01:29:50.551Z,101789.31
2023-02-09T01:32:20.167Z,101771.97
2023-02-09T01:34:53.489Z,101758.38
2023-02-09T01:37:23.363Z,101758.75
2023-02-09T01:39:53.056Z,101752.72
2023-02-09T01:42:23.071Z,101747.34
2023-02-09T01:45:04.050Z,101748.66
2023-02-09T01:47:33.662Z,101747.16
2023-02-09T01:50:03.267Z,101744.50
2023-02-09T01:52:32.904Z,101752.47
2023-02-09T01:55:04.638Z,101749.31
2023-02-09T01:57:39.910Z,101741.44
2023-02-09T02:00:20.490Z,101745.34
2023-02-09T02:03:01.181Z,101735.84
2023-02-09T02:05:30.984Z,101755.38
2023-02-09T02:08:04.073Z,101753.84
2023-02-09T02:10:36.393Z,101748.75
2023-02-09T02:13:06.059Z,101738.22
2023-02-09T02:15:48.177Z,101733.06
2023-02-09T02:18:40.437Z,101738.44
2023-02-09T02:21:42.912Z,101730.03
2023-02-09T02:24:24.222Z,101728.38
2023-02-09T02:27:07.315Z,101728.38
2023-02-09T02:29:50.874Z,101714.66
2023-02-09T02:32:58.916Z,101704.69
2023-02-09T02:35:50.126Z,101693.47
2023-02-09T02:38:30.112Z,101687.50
2023-02-09T02:41:08.960Z,101690.59
2023-02-09T02:44:02.874Z,101676.88
2023-02-09T02:46:37.387Z,101683.69
2023-02-09T02:49:15.055Z,101680.50
2023-02-09T02:51:49.053Z,101675.75
2023-02-09T02:54:29.749Z,101665.72
2023-02-09T02:57:01.607Z,101664.59
2023-02-09T02:59:33.778Z,101668.13
2023-02-09T03:02:19.016Z,101656.56
2023-02-09T03:04:49.446Z,101652.25
2023-02-09T03:07:19.763Z,101656.63
2023-02-09T03:09:53.068Z,101646.22
2023-02-09T03:12:31.782Z,101637.03
2023-02-09T03:15:21.176Z,101632.03
2023-02-09T03:17:54.450Z,101627.44
2023-02-09T03:20:48.133Z,101637.97
2023-02-09T03:23:42.009Z,101624.09
2023-02-09T03:26:26.533Z,101606.13
2023-02-09T03:28:56.703Z,101603.06
2023-02-09T03:31:29.598Z,101587.53
2023-02-09T03:33:59.672Z,101574.09
2023-02-09T03:36:35.771Z,101567.47
2023-02-09T03:39:05.564Z,101558.06
2023-02-09T03:41:35.336Z,101546.06
2023-02-09T03:44:23.167Z,101528.44
2023-02-09T03:46:53.090Z,101511.59
2023-02-09T03:49:22.892Z,101509.91
2023-02-09T03:51:52.620Z,101493.88
2023-02-09T03:54:23.085Z,101484.66
2023-02-09T03:56:52.787Z,101475.50
2023-02-09T03:59:23.107Z,101477.22
2023-02-09T04:01:53.969Z,101468.72
2023-02-09T04:04:23.777Z,101458.69
2023-02-09T04:06:53.644Z,101454.16
2023-02-09T04:09:23.300Z,101436.41
2023-02-09T04:11:53.076Z,101440.06
2023-02-09T04:14:22.674Z,101444.88
2023-02-09T04:16:52.277Z,101454.91
2023-02-09T04:19:21.873Z,101453.06
2023-02-09T04:21:51.603Z,101461.84
2023-02-09T04:24:22.849Z,101446.72
2023-02-09T04:26:52.493Z,101452.34
2023-02-09T04:29:22.161Z,101452.03
2023-02-09T04:31:58.097Z,101439.34
2023-02-09T04:34:33.050Z,101419.16
2023-02-09T04:37:02.651Z,101413.41
2023-02-09T04:39:32.400Z,101408.19
2023-02-09T04:42:01.966Z,101399.72
2023-02-09T04:44:31.754Z,101401.69
2023-02-09T04:47:01.414Z,101406.78
2023-02-09T04:49:34.283Z,101405.09
2023-02-09T04:52:03.959Z,101396.03
2023-02-09T04:54:36.792Z,101394.53
2023-02-09T04:57:24.406Z,101392.25
2023-02-09T04:59:54.154Z,101385.78
2023-02-09T05:02:23.814Z,101387.59
2023-02-09T05:04:53.470Z,101383.50
2023-02-09T05:07:24.721Z,101386.47
2023-02-09T05:09:54.500Z,101388.59
2023-02-09T05:12:24.197Z,101392.97
2023-02-09T05:14:53.851Z,101381.53
2023-02-09T05:17:23.509Z,101378.16
2023-02-09T05:19:53.254Z,101374.91
2023-02-09T05:22:23.074Z,101376.63
2023-02-09T05:24:55.647Z,101366.91
2023-02-09T05:27:25.260Z,101362.38
2023-02-09T05:29:55.031Z,101363.19
2023-02-09T05:32:24.756Z,101364.47
2023-02-09T05:34:54.476Z,101362.75
2023-02-09T05:37:24.272Z,101359.19
2023-02-09T05:39:54.478Z,101354.00
2023-02-09T05:42:30.477Z,101363.47
2023-02-09T05:45:00.230Z,101361.34
2023-02-09T05:47:29.932Z,101364.06
2023-02-09T05:49:59.653Z,101356.28
2023-02-09T05:52:29.298Z,101350.50
2023-02-09T05:55:01.690Z,101360.66
2023-02-09T05:57:31.347Z,101353.59
2023-02-09T06:00:01.073Z,101344.09
2023-02-09T06:02:33.526Z,101337.47
2023-02-09T06:05:03.257Z,101333.50
2023-02-09T06:07:33.040Z,101329.97
2023-02-09T06:10:02.812Z,101321.66
2023-02-09T06:12:32.583Z,101316.59
2023-02-09T06:15:02.361Z,101301.63
2023-02-09T06:17:31.988Z,101308.25
2023-02-09T06:20:03.893Z,101316.47
2023-02-09T06:22:33.664Z,101304.34
2023-02-09T06:25:03.533Z,101318.28
2023-02-09T06:27:33.245Z,101310.31
2023-02-09T06:30:05.007Z,101297.84
2023-02-09T06:32:34.959Z,101303.97
2023-02-09T06:35:04.551Z,101293.78
2023-02-09T06:37:34.231Z,101290.47
2023-02-09T06:40:04.055Z,101292.03
2023-02-09T06:42:45.311Z,101296.66
2023-02-09T06:45:18.668Z,101285.38
2023-02-09T06:47:48.534Z,101283.91
2023-02-09T06:50:18.623Z,101276.94
2023-02-09T06:52:48.514Z,101271.97
2023-02-09T06:55:18.303Z,101264.03
2023-02-09T06:57:47.962Z,101261.59
2023-02-09T07:00:18.022Z,101259.63
2023-02-09T07:02:47.783Z,101268.13
2023-02-09T07:05:18.314Z,101263.75
2023-02-09T07:07:48.186Z,101261.47
2023-02-09T07:10:18.536Z,101260.31
2023-02-09T07:12:48.242Z,101254.56
2023-02-09T07:15:17.918Z,101248.59
2023-02-09T07:17:47.615Z,101247.09
2023-02-09T07:20:17.336Z,101238.63
2023-02-09T07:22:47.081Z,101238.22
2023-02-09T07:25:17.029Z,101233.25
2023-02-09T07:27:47.158Z,101231.41
2023-02-09T07:30:22.804Z,101235.22
2023-02-09T07:32:52.520Z,101239.22
2023-02-09T07:35:22.159Z,101225.97
2023-02-09T07:37:51.981Z,101228.47
2023-02-09T07:40:22.045Z,101219.88
2023-02-09T07:42:53.107Z,101220.34
2023-02-09T07:45:25.956Z,101222.88
2023-02-09T07:47:55.630Z,101223.31
2023-02-09T07:50:28.209Z,101215.53
2023-02-09T07:52:58.117Z,101226.16
2023-02-09T07:55:27.803Z,101236.75
2023-02-09T07:58:00.805Z,101238.88
2023-02-09T08:00:30.449Z,101248.06
2023-02-09T08:03:00.131Z,101246.53
2023-02-09T08:05:36.570Z,101243.84
2023-02-09T08:08:06.429Z,101244.16
2023-02-09T08:10:36.621Z,101236.22
2023-02-09T08:13:06.384Z,101234.41
2023-02-09T08:15:51.233Z,101236.84
2023-02-09T08:18:27.711Z,101235.72
2023-02-09T08:20:57.337Z,101233.91
2023-02-09T08:23:31.689Z,101233.66
2023-02-09T08:26:01.679Z,101231.00
2023-02-09T08:28:43.303Z,101239.06
2023-02-09T08:31:18.401Z,101240.97
2023-02-09T08:33:47.723Z,101249.72
2023-02-09T08:36:17.449Z,101245.09
2023-02-09T08:38:47.219Z,101239.69
2023-02-09T08:41:18.024Z,101238.00
2023-02-09T08:43:53.937Z,101239.13
2023-02-09T08:46:23.662Z,101235.34
2023-02-09T08:48:53.965Z,101233.38
2023-02-09T08:51:23.654Z,101233.81
2023-02-09T08:53:56.051Z,101236.03
2023-02-09T08:56:25.869Z,101238.16
2023-02-09T08:58:55.592Z,101238.59
2023-02-09T09:01:25.171Z,101239.72
2023-02-09T09:03:54.882Z,101246.31
2023-02-09T09:06:24.668Z,101236.03
2023-02-09T09:08:54.331Z,101243.66
2023-02-09T09:11:23.949Z,101248.28
2023-02-09T09:13:53.556Z,101242.09
2023-02-09T09:16:24.113Z,101239.69
2023-02-09T09:18:53.778Z,101236.44
2023-02-09T09:21:23.530Z,101233.22
2023-02-09T09:23:53.341Z,101232.66
2023-02-09T09:26:26.004Z,101229.50
2023-02-09T09:28:55.609Z,101228.81
2023-02-09T09:31:25.319Z,101229.09
2023-02-09T09:33:55.054Z,101228.38
2023-02-09T09:36:24.703Z,101231.19
2023-02-09T09:38:55.769Z,101229.78
2023-02-09T09:41:27.514Z,101229.91
2023-02-09T09:43:57.365Z,101225.69
2023-02-09T09:46:38.780Z,101220.63
2023-02-09T09:49:08.418Z,101223.41
2023-02-09T09:51:50.492Z,101221.72
2023-02-09T09:54:22.637Z,101219.59
2023-02-09T09:56:54.534Z,101222.16
2023-02-09T09:59:31.328Z,101222.41
2023-02-09T10:02:03.559Z,101229.75
2023-02-09T10:04:33.232Z,101238.88
2023-02-09T10:07:04.313Z,101239.00
2023-02-09T10:09:54.243Z,101229.53
2023-02-09T10:12:44.007Z,101240.25
2023-02-09T10:15:32.991Z,101243.22
2023-02-09T10:18:02.930Z,101236.31
2023-02-09T10:21:05.816Z,101244.44
2023-02-09T10:23:52.382Z,101237.41
2023-02-09T10:26:26.912Z,101246.53
2023-02-09T10:28:58.318Z,101246.81
2023-02-09T10:31:40.497Z,101238.94
2023-02-09T10:34:17.073Z,101246.09
2023-02-09T10:36:55.332Z,101254.13
2023-02-09T10:39:33.268Z,101249.75
2023-02-09T10:42:41.529Z,101243.56
2023-02-09T10:45:17.192Z,101241.16
2023-02-09T10:47:48.800Z,101237.78
2023-02-09T10:50:19.948Z,101237.19
2023-02-09T10:53:01.019Z,101232.72
2023-02-09T10:55:39.631Z,101229.31
2023-02-09T10:58:13.626Z,101234.66
2023-02-09T11:01:10.932Z,101232.84
2023-02-09T11:04:00.184Z,101227.63
2023-02-09T11:06:30.175Z,101227.75
2023-02-09T11:09:08.067Z,101223.41
2023-02-09T11:11:41.296Z,101229.84
2023-02-09T11:14:21.235Z,101226.28
2023-02-09T11:17:12.152Z,101227.41
2023-02-09T11:20:03.750Z,101224.03
2023-02-09T11:23:04.044Z,101230.47
2023-02-09T11:26:07.762Z,101228.94
2023-02-09T11:29:01.386Z,101229.91
2023-02-09T11:31:47.840Z,101226.38
2023-02-09T11:34:38.746Z,101226.63
2023-02-09T11:37:26.789Z,101224.97
2023-02-09T11:40:20.697Z,101228.47
2023-02-09T11:43:04.408Z,101230.44
2023-02-09T11:45:49.730Z,101231.41
2023-02-09T11:48:29.380Z,101225.38
2023-02-09T11:51:01.743Z,101218.34
2023-02-09T11:53:47.810Z,101221.13
2023-02-09T11:56:20.663Z,101219.44
2023-02-09T11:59:01.287Z,101215.09
2023-02-09T12:01:42.529Z,101216.03
2023-02-09T12:04:17.881Z,101223.22
2023-02-09T12:07:19.816Z,101209.84
2023-02-09T12:10:02.265Z,101207.34
2023-02-09T12:12:34.034Z,101208.44
2023-02-09T12:15:33.199Z,101203.34
2023-02-09T12:18:13.860Z,101192.66
2023-02-09T12:20:43.530Z,101189.16
2023-02-09T12:23:41.471Z,101199.84
2023-02-09T12:26:14.144Z,101184.91
2023-02-09T12:28:51.038Z,101185.78
2023-02-09T12:31:25.923Z,101188.56
2023-02-09T12:34:01.703Z,101193.91
2023-02-09T12:36:33.232Z,101185.19
2023-02-09T12:39:27.526Z,101178.16
2023-02-09T12:42:00.513Z,101187.16
2023-02-09T12:44:30.032Z,101185.47
2023-02-09T12:46:59.618Z,101187.28
2023-02-09T12:49:32.963Z,101176.72
2023-02-09T12:52:05.713Z,101182.06
2023-02-09T12:54:58.321Z,101181.22
2023-02-09T12:57:28.036Z,101188.53
2023-02-09T12:59:57.969Z,101185.13
2023-02-09T13:02:38.849Z,101174.44
2023-02-09T13:05:20.520Z,101183.44
2023-02-09T13:08:00.554Z,101174.72
2023-02-09T13:10:43.947Z,101179.94
2023-02-09T13:13:13.540Z,101172.88
2023-02-09T13:16:09.953Z,101171.19
2023-02-09T13:18:58.039Z,101168.78
2023-02-09T13:21:50.179Z,101175.09
2023-02-09T13:24:24.068Z,101176.22
2023-02-09T13:26:58.388Z,101171.59
2023-02-09T13:29:34.680Z,101170.88
2023-02-09T13:32:19.458Z,101170.03
2023-02-09T13:34:57.407Z,101165.69
2023-02-09T13:37:29.604Z,101164.00
2023-02-09T13:40:02.374Z,101161.44
2023-02-09T13:42:33.169Z,101156.09
2023-02-09T13:45:02.767Z,101151.75
2023-02-09T13:47:32.372Z,101154.41
2023-02-09T13:50:12.608Z,101156.34
2023-02-09T13:52:42.436Z,101143.88
2023-02-09T13:55:33.287Z,101146.66
2023-02-09T13:58:06.824Z,101152.97
2023-02-09T14:00:42.519Z,101145.09
2023-02-09T14:03:26.078Z,101137.97
2023-02-09T14:06:16.221Z,101139.91
2023-02-09T14:08:45.845Z,101140.03
2023-02-09T14:11:42.321Z,101144.50
2023-02-09T14:14:21.554Z,101139.16
2023-02-09T14:17:22.745Z,101149.84
2023-02-09T14:19:54.238Z,101144.50
2023-02-09T14:22:29.926Z,101152.66
2023-02-09T14:24:59.565Z,101154.47
2023-02-09T14:27:34.391Z,101143.66
2023-02-09T14:30:04.015Z,101143.81
2023-02-09T14:32:41.975Z,101145.63
2023-02-09T14:35:18.557Z,101142.25
2023-02-09T14:37:50.428Z,101137.75
2023-02-09T14:40:35.690Z,101144.06
2023-02-09T14:43:15.268Z,101146.88
2023-02-09T14:45:59.482Z,101146.88
2023-02-09T14:48:30.625Z,101141.53
2023-02-09T14:51:06.601Z,101135.44
2023-02-09T14:53:36.194Z,101136.44
2023-02-09T14:56:05.829Z,101132.19
2023-02-09T14:58:36.141Z,101131.34
2023-02-09T15:01:05.883Z,101138.50
2023-02-09T15:03:35.600Z,101132.31
2023-02-09T15:06:05.888Z,101117.41
2023-02-09T15:08:37.623Z,101124.72
2023-02-09T15:11:26.721Z,101132.72
2023-02-09T15:13:59.764Z,101119.50
2023-02-09T15:16:29.401Z,101111.50
2023-02-09T15:18:59.014Z,101107.13
2023-02-09T15:21:28.641Z,101105.47
2023-02-09T15:24:00.415Z,101103.75
2023-02-09T15:26:33.038Z,101105.56
2023-02-09T15:29:02.614Z,101102.91
2023-02-09T15:31:34.308Z,101107.25
2023-02-09T15:34:03.936Z,101094.19
2023-02-09T15:36:33.619Z,101097.81
2023-02-09T15:39:03.213Z,101089.13
2023-02-09T15:41:50.941Z,101086.44
2023-02-09T15:44:39.633Z,101086.44
2023-02-09T15:47:27.416Z,101087.53
2023-02-09T15:49:57.003Z,101081.38
2023-02-09T15:52:27.420Z,101081.50
2023-02-09T15:54:57.199Z,101073.63
2023-02-09T15:57:29.556Z,101074.59
2023-02-09T15:59:59.232Z,101075.44
2023-02-09T16:02:28.971Z,101082.59
2023-02-09T16:04:58.577Z,101071.94
2023-02-09T16:07:28.287Z,101064.91
2023-02-09T16:09:57.888Z,101053.41
2023-02-09T16:12:27.527Z,101057.03
2023-02-09T16:14:57.137Z,101052.53
2023-02-09T16:17:26.729Z,101047.34
2023-02-09T16:19:56.432Z,101038.50
2023-02-09T16:22:26.633Z,101039.50
2023-02-09T16:24:56.281Z,101027.00
2023-02-09T16:27:27.136Z,101022.63
2023-02-09T16:29:57.618Z,101011.25
2023-02-09T16:32:28.382Z,101008.69
2023-02-09T16:35:07.355Z,101002.66
2023-02-09T16:37:44.812Z,101016.69
2023-02-09T16:40:34.965Z,101002.66
2023-02-09T16:43:04.784Z,100994.66
2023-02-09T16:45:34.586Z,100988.59
2023-02-09T16:48:04.248Z,100988.59
2023-02-09T16:50:43.454Z,100991.28
2023-02-09T16:53:20.162Z,100978.06
2023-02-09T16:55:53.052Z,100978.91
2023-02-09T16:58:23.000Z,100964.03
2023-02-09T17:00:52.613Z,100969.34
2023-02-09T17:03:45.826Z,100963.19
2023-02-09T17:06:21.590Z,100963.19
2023-02-09T17:08:51.244Z,100954.47
2023-02-09T17:11:26.387Z,100955.44
2023-02-09T17:13:58.924Z,100950.09
2023-02-09T17:16:32.804Z,100946.59
2023-02-09T17:19:03.346Z,100944.91
2023-02-09T17:21:36.795Z,100947.59
2023-02-09T17:24:06.815Z,100945.75
2023-02-09T17:26:36.352Z,100937.06
2023-02-09T17:29:06.001Z,100930.84
2023-02-09T17:31:47.255Z,100930.00
2023-02-09T17:34:22.217Z,100931.72
2023-02-09T17:36:51.795Z,100939.84
2023-02-09T17:39:21.447Z,100941.66
2023-02-09T17:41:51.533Z,100939.84
2023-02-09T17:44:39.129Z,100933.66
2023-02-09T17:47:18.832Z,100931.16
2023-02-09T17:49:48.485Z,100935.75
2023-02-09T17:52:21.388Z,100927.63
2023-02-09T17:54:52.395Z,100922.31
2023-02-09T17:57:22.650Z,100911.66
2023-02-09T17:59:52.461Z,100905.59
2023-02-09T18:02:24.345Z,100900.25
2023-02-09T18:04:54.037Z,100887.91
2023-02-09T18:07:23.599Z,100879.91
2023-02-09T18:09:53.436Z,100878.19
2023-02-09T18:12:24.489Z,100886.19
2023-02-09T18:14:56.955Z,100885.25
2023-02-09T18:17:26.614Z,100882.69
2023-02-09T18:19:58.248Z,100878.34
2023-02-09T18:22:29.041Z,100876.53
2023-02-09T18:25:01.730Z,100870.34
2023-02-09T18:27:31.474Z,100865.00
2023-02-09T18:30:01.178Z,100864.19
2023-02-09T18:32:33.959Z,100861.63
2023-02-09T18:35:03.761Z,100843.94
2023-02-09T18:37:37.099Z,100846.63
2023-02-09T18:40:07.075Z,100847.47
2023-02-09T18:42:36.743Z,100846.63
2023-02-09T18:45:06.878Z,100841.44
2023-02-09T18:47:38.736Z,100837.94
2023-02-09T18:50:08.968Z,100842.53
2023-02-09T18:52:45.211Z,100846.03
2023-02-09T18:55:14.876Z,100839.03
2023-02-09T18:57:44.744Z,100837.34
2023-02-09T19:00:17.515Z,100838.31
2023-02-09T19:02:47.199Z,100834.78
2023-02-09T19:05:17.711Z,100834.78
2023-02-09T19:07:48.571Z,100835.78
2023-02-09T19:10:19.879Z,100837.72
2023-02-09T19:12:49.883Z,100837.88
2023-02-09T19:15:19.596Z,100830.72
2023-02-09T19:17:49.177Z,100833.53
2023-02-09T19:20:20.595Z,100830.00
2023-02-09T19:22:52.992Z,100822.13
2023-02-09T19:25:23.780Z,100820.31
2023-02-09T19:27:53.841Z,100811.47
2023-02-09T19:30:26.510Z,100805.31
2023-02-09T19:32:59.710Z,100803.63
2023-02-09T19:35:30.849Z,100805.44
2023-02-09T19:38:00.703Z,100801.81
2023-02-09T19:40:37.205Z,100797.56
2023-02-09T19:43:07.471Z,100790.41
2023-02-09T19:45:39.924Z,100795.03
2023-02-09T19:48:09.898Z,100791.53
2023-02-09T19:50:39.575Z,100793.34
2023-02-09T19:53:09.314Z,100798.66
2023-02-09T19:55:38.926Z,100799.50
2023-02-09T19:58:08.525Z,100792.47
2023-02-09T20:00:38.136Z,100787.13
2023-02-09T20:03:07.788Z,100785.47
2023-02-09T20:05:37.569Z,100786.44
2023-02-09T20:08:07.244Z,100778.59
2023-02-09T20:10:38.973Z,100777.03
2023-02-09T20:13:10.012Z,100770.88
2023-02-09T20:15:43.684Z,100768.31
2023-02-09T20:18:15.864Z,100760.47
2023-02-09T20:20:47.576Z,100776.47
2023-02-09T20:23:17.405Z,100767.75
2023-02-09T20:25:47.104Z,100767.75
2023-02-09T20:28:16.744Z,100759.06
2023-02-09T20:30:47.766Z,100761.84
2023-02-09T20:33:17.577Z,100766.31
2023-02-09T20:35:47.496Z,100765.47
2023-02-09T20:38:17.122Z,100757.63
2023-02-09T20:40:47.229Z,100748.09
2023-02-09T20:43:35.672Z,100754.41
2023-02-09T20:46:27.073Z,100758.88
2023-02-09T20:48:56.658Z,100765.31
2023-02-09T20:51:27.011Z,100755.63
2023-02-09T20:53:56.635Z,100753.94
2023-02-09T20:56:26.288Z,100753.66
2023-02-09T20:58:55.989Z,100745.59
2023-02-09T21:01:25.668Z,100752.16
2023-02-09T21:04:00.243Z,100760.94
2023-02-09T21:06:30.484Z,100764.34
2023-02-09T21:09:00.111Z,100771.44
2023-02-09T21:11:29.849Z,100771.13
2023-02-09T21:13:59.523Z,100768.94
2023-02-09T21:16:29.224Z,100772.81
2023-02-09T21:18:59.445Z,100768.53
2023-02-09T21:21:29.270Z,100773.91
2023-02-09T21:23:58.996Z,100781.19
2023-02-09T21:26:30.127Z,100775.97
2023-02-09T21:29:00.136Z,100773.38
2023-02-09T21:31:30.149Z,100770.59
2023-02-09T21:34:02.730Z,100771.13
2023-02-09T21:36:36.166Z,100773.19
2023-02-09T21:39:05.936Z,100773.41
2023-02-09T21:41:53.777Z,100776.25
2023-02-09T21:44:23.431Z,100793.09
2023-02-09T21:46:53.225Z,100793.81
2023-02-09T21:49:22.972Z,100791.38
2023-02-09T21:51:52.699Z,100789.91
2023-02-09T21:54:26.563Z,100784.56
2023-02-09T21:56:57.591Z,100793.97
2023-02-09T21:59:31.249Z,100802.22
2023-02-09T22:02:00.867Z,100797.38
2023-02-09T22:04:33.482Z,100800.41
2023-02-09T22:07:06.764Z,100799.78
2023-02-09T22:09:36.483Z,100802.78
2023-02-09T22:12:06.618Z,100796.97
2023-02-09T22:14:36.282Z,100799.81
2023-02-09T22:17:08.057Z,100801.19
2023-02-09T22:19:38.449Z,100796.16
2023-02-09T22:22:08.092Z,100804.25
2023-02-09T22:24:37.824Z,100812.19
2023-02-09T22:27:07.524Z,100807.66
2023-02-09T22:29:37.187Z,100810.47
2023-02-09T22:32:06.871Z,100810.47
2023-02-09T22:34:36.686Z,100808.00
2023-02-09T22:37:06.380Z,100816.72
2023-02-09T22:39:36.038Z,100813.22
2023-02-09T22:42:09.182Z,100824.81
2023-02-09T22:44:47.569Z,100824.81
2023-02-09T22:47:17.335Z,100834.56
2023-02-09T22:49:48.406Z,100836.75
2023-02-09T22:52:18.089Z,100830.22
2023-02-09T22:54:49.960Z,100833.75
2023-02-09T22:57:19.798Z,100828.03
2023-02-09T22:59:49.470Z,100824.38
2023-02-09T23:02:21.979Z,100822.84
2023-02-09T23:04:54.371Z,100819.50
2023-02-09T23:07:26.910Z,100817.47
2023-02-09T23:09:56.659Z,100818.84
2023-02-09T23:12:26.291Z,100819.13
2023-02-09T23:14:56.277Z,100813.59
2023-02-09T23:17:26.096Z,100823.47
2023-02-09T23:19:55.769Z,100820.97
2023-02-09T23:22:25.494Z,100818.78
2023-02-09T23:24:56.426Z,100831.53
2023-02-09T23:27:26.108Z,100828.19
2023-02-09T23:29:57.111Z,100835.72
2023-02-09T23:32:26.868Z,100839.06
2023-02-09T23:34:56.476Z,100840.91
2023-02-09T23:37:37.161Z,100835.72
2023-02-09T23:40:07.971Z,100842.75
2023-02-09T23:42:38.776Z,100844.94
2023-02-09T23:45:08.770Z,100850.47
2023-02-09T23:47:38.381Z,100842.75
2023-02-09T23:50:08.369Z,100843.41
2023-02-09T23:52:38.026Z,100845.25
2023-02-09T23:55:08.050Z,100841.41
2023-02-09T23:57:40.198Z,100844.75
